Portada
METAR-TAF:

METAR-TAF

Aeropuertos :

Aeropuerto de Yakutsk

Yakutsk, Rusia

latitud: 62-01N, longitud: 129-43E, altitud: 103 m

Observación

El informe se hizo hace 25 minutos, a las 05:00 UTC
Viento calma
Temperatura -31°C
Humedad 82%
Presión 1027 hPa
Visibilidad: 3200 m
neblina

METAR: UEEE 200500Z 00000MPS 3200 BR NSC M31/M33 Q1027 R23L/450150 NOSIG RMK QFE762

Hora: 14:25 (05:25 UTC)

Pronóstico

El informe se hizo hace 3 horas y 25 minutos, a las 02:00 UTC
Pronóstico válido del 20 a las 03 UTC al 21 a las 09 UTC
Viento 6 kt del sureste
Visibilidad 10 km o más
Nubes dispersas a una altura de 2000 ft
Cielo nuboso a una altura de 10000 ft
Temporalmente
del 20 a las 03 UTC al 20 a las 12 UTC
Visibilidad: 3200 m
poca nieve, neblina

TAF: UEEE 200200Z 2003/2109 13003MPS 9999 SCT020 BKN100 TEMPO 2003/2012 3200 -SN BR

Observaciones y pronósticos meteorológicos de más de 4000 aeropuertos (mensajes METAR y TAF).

Los puntos amarillos y rojos representan las estaciones disponibles.

Ponga el ratón en el punto deseado para ver el nombre de la estación.

Haga clic para ver las observaciones y los pronósticos meteorológicos.

Para cambiar el mapa : haga clic en los botones verdes con una cruz de color negro para hacer un zoom, en el botón verde con un guión para alejar o en las flechas verdes para mapas adyacentes.


METAR-TAF: